createdAt,value
2022-08-29T00:01:26.562Z,28.53
2022-08-29T00:03:59.873Z,28.55
2022-08-29T00:06:29.551Z,28.53
2022-08-29T00:08:59.021Z,28.44
2022-08-29T00:11:28.058Z,28.50
2022-08-29T00:13:57.408Z,28.59
2022-08-29T00:16:26.883Z,28.48
2022-08-29T00:18:57.117Z,28.60
2022-08-29T00:21:26.363Z,28.68
2022-08-29T00:23:55.268Z,28.93
2022-08-29T00:26:24.574Z,29.00
2022-08-29T00:28:56.387Z,29.05
2022-08-29T00:31:25.999Z,28.89
2022-08-29T00:33:55.368Z,28.76
2022-08-29T00:36:24.783Z,28.93
2022-08-29T00:38:55.119Z,29.00
2022-08-29T00:41:27.457Z,29.07
2022-08-29T00:43:56.520Z,29.09
2022-08-29T00:46:51.260Z,29.04
2022-08-29T00:49:30.118Z,29.00
2022-08-29T00:52:05.068Z,29.04
2022-08-29T00:54:34.552Z,29.02
2022-08-29T00:57:03.955Z,29.06
2022-08-29T00:59:40.342Z,29.11
2022-08-29T01:02:12.239Z,29.06
2022-08-29T01:04:41.961Z,29.04
2022-08-29T01:07:12.292Z,29.11
2022-08-29T01:09:44.225Z,29.12
2022-08-29T01:12:20.439Z,29.15
2022-08-29T01:15:04.789Z,29.34
2022-08-29T01:17:43.998Z,29.36
2022-08-29T01:20:26.803Z,29.43
2022-08-29T01:23:04.958Z,29.46
2022-08-29T01:25:39.307Z,29.52
2022-08-29T01:28:14.891Z,29.64
2022-08-29T01:31:05.290Z,29.79
2022-08-29T01:33:40.411Z,29.73
2022-08-29T01:36:11.785Z,29.80
2022-08-29T01:38:42.526Z,29.75
2022-08-29T01:41:12.431Z,29.78
2022-08-29T01:43:49.912Z,29.85
2022-08-29T01:46:23.402Z,29.80
2022-08-29T01:48:53.046Z,29.78
2022-08-29T01:51:22.724Z,29.78
2022-08-29T01:53:52.772Z,29.87
2022-08-29T01:56:30.803Z,29.92
2022-08-29T01:59:02.165Z,29.86
2022-08-29T02:01:39.250Z,29.85
2022-08-29T02:04:10.313Z,29.84
2022-08-29T02:06:39.528Z,29.93
2022-08-29T02:09:11.218Z,29.91
2022-08-29T02:11:41.470Z,29.90
2022-08-29T02:14:16.255Z,29.94
2022-08-29T02:16:49.891Z,29.92
2022-08-29T02:19:20.438Z,29.90
2022-08-29T02:21:53.628Z,29.99
2022-08-29T02:24:25.716Z,29.99
2022-08-29T02:26:59.582Z,30.08
2022-08-29T02:29:37.126Z,30.06
2022-08-29T02:32:14.079Z,29.86
2022-08-29T02:34:47.559Z,29.88
2022-08-29T02:37:18.628Z,29.77
2022-08-29T02:39:48.077Z,29.78
2022-08-29T02:42:17.044Z,29.99
2022-08-29T02:44:46.163Z,30.03
2022-08-29T02:47:15.367Z,30.02
2022-08-29T02:49:44.871Z,30.03
2022-08-29T02:52:14.091Z,29.96
2022-08-29T02:54:43.195Z,29.93
2022-08-29T02:57:12.253Z,29.94
2022-08-29T02:59:41.413Z,29.69
2022-08-29T03:02:10.540Z,29.24
2022-08-29T03:04:40.013Z,29.13
2022-08-29T03:07:09.187Z,29.10
2022-08-29T03:09:38.405Z,28.84
2022-08-29T03:12:07.629Z,28.57
2022-08-29T03:14:36.626Z,28.61
2022-08-29T03:17:06.083Z,28.97
2022-08-29T03:19:37.227Z,29.09
2022-08-29T03:22:07.598Z,29.08
2022-08-29T03:24:38.442Z,29.12
2022-08-29T03:27:07.838Z,28.50
2022-08-29T03:29:36.767Z,28.25
2022-08-29T03:32:06.533Z,28.16
2022-08-29T03:34:35.593Z,28.24
2022-08-29T03:37:04.683Z,28.31
2022-08-29T03:39:37.721Z,28.22
2022-08-29T03:42:08.502Z,27.93
2022-08-29T03:44:41.411Z,27.93
2022-08-29T03:47:10.902Z,27.76
2022-08-29T03:49:40.149Z,27.52
2022-08-29T03:52:10.712Z,27.84
2022-08-29T03:54:40.317Z,27.90
2022-08-29T03:57:10.621Z,27.78
2022-08-29T03:59:39.718Z,27.63
2022-08-29T04:02:08.999Z,27.87
2022-08-29T04:04:56.650Z,27.91
2022-08-29T04:07:26.072Z,27.97
2022-08-29T04:09:55.085Z,27.97
2022-08-29T04:12:25.147Z,27.97
2022-08-29T04:14:54.272Z,28.07
2022-08-29T04:17:23.234Z,28.18
2022-08-29T04:19:52.924Z,28.22
2022-08-29T04:22:21.844Z,28.22
2022-08-29T04:24:51.739Z,28.12
2022-08-29T04:27:21.439Z,28.35
2022-08-29T04:29:51.047Z,28.48
2022-08-29T04:32:21.441Z,28.66
2022-08-29T04:34:51.145Z,28.67
2022-08-29T04:37:20.869Z,28.43
2022-08-29T04:39:49.898Z,28.62
2022-08-29T04:42:21.434Z,28.63
2022-08-29T04:44:50.979Z,28.70
2022-08-29T04:47:23.382Z,29.06
2022-08-29T04:49:56.954Z,29.35
2022-08-29T04:52:28.009Z,29.47
2022-08-29T04:54:57.275Z,29.62
2022-08-29T04:57:26.260Z,29.75
2022-08-29T04:59:57.231Z,30.06
2022-08-29T05:02:27.511Z,30.22
2022-08-29T05:04:57.973Z,30.36
2022-08-29T05:07:28.799Z,30.53
2022-08-29T05:10:07.465Z,30.58
2022-08-29T05:12:38.679Z,30.67
2022-08-29T05:15:09.660Z,30.63
2022-08-29T05:17:39.819Z,30.69
2022-08-29T05:20:09.894Z,30.84
2022-08-29T05:22:40.333Z,31.02
2022-08-29T05:25:15.747Z,31.07
2022-08-29T05:27:47.656Z,30.98
2022-08-29T05:30:32.133Z,31.20
2022-08-29T05:33:03.942Z,31.29
2022-08-29T05:35:34.568Z,31.41
2022-08-29T05:38:09.045Z,31.59
2022-08-29T05:40:40.136Z,31.63
2022-08-29T05:43:14.365Z,31.96
2022-08-29T05:45:44.269Z,31.83
2022-08-29T05:48:15.855Z,31.93
2022-08-29T05:50:45.936Z,32.16
2022-08-29T05:53:17.817Z,32.32
2022-08-29T05:55:47.905Z,32.47
2022-08-29T05:58:17.268Z,32.38
2022-08-29T06:00:48.219Z,32.53
2022-08-29T06:03:17.865Z,32.36
2022-08-29T06:05:53.084Z,32.73
2022-08-29T06:08:23.072Z,32.47
2022-08-29T06:10:52.421Z,32.62
2022-08-29T06:13:21.701Z,32.75
2022-08-29T06:15:51.292Z,32.89
2022-08-29T06:18:26.912Z,32.97
2022-08-29T06:21:08.590Z,33.16
2022-08-29T06:23:39.296Z,33.22
2022-08-29T06:26:10.320Z,33.37
2022-08-29T06:28:42.244Z,33.32
2022-08-29T06:31:31.741Z,33.27
2022-08-29T06:34:03.816Z,33.52
2022-08-29T06:36:33.984Z,33.50
2022-08-29T06:39:10.259Z,33.53
2022-08-29T06:41:41.810Z,33.54
2022-08-29T06:44:15.852Z,33.63
2022-08-29T06:46:49.013Z,33.59
2022-08-29T06:49:21.208Z,33.65
2022-08-29T06:51:57.614Z,33.80
2022-08-29T06:54:29.732Z,33.92
2022-08-29T06:57:01.049Z,34.00
2022-08-29T06:59:30.077Z,34.02
2022-08-29T07:01:59.201Z,33.94
2022-08-29T07:04:28.560Z,33.97
2022-08-29T07:06:57.711Z,34.07
2022-08-29T07:09:27.224Z,33.95
2022-08-29T07:11:56.723Z,34.09
2022-08-29T07:14:25.874Z,34.11
2022-08-29T07:16:55.496Z,34.05
2022-08-29T07:19:24.360Z,34.16
2022-08-29T07:21:58.134Z,34.18
2022-08-29T07:24:28.422Z,34.24
2022-08-29T07:26:57.826Z,34.11
2022-08-29T07:29:26.984Z,34.20
2022-08-29T07:31:56.168Z,34.12
2022-08-29T07:37:13.781Z,34.53
2022-08-29T07:39:43.748Z,34.62
2022-08-29T07:42:12.916Z,34.61
2022-08-29T07:44:42.042Z,34.72
2022-08-29T07:47:11.261Z,34.68
2022-08-29T07:49:41.905Z,34.75
2022-08-29T07:52:11.757Z,34.71
2022-08-29T07:54:41.262Z,34.85
2022-08-29T07:57:10.342Z,34.81
2022-08-29T07:59:40.078Z,34.90
2022-08-29T08:02:09.493Z,34.95
2022-08-29T08:04:38.751Z,35.02
2022-08-29T08:07:10.410Z,35.08
2022-08-29T08:09:43.421Z,35.05
2022-08-29T08:12:12.701Z,35.10
2022-08-29T08:14:42.582Z,35.20
2022-08-29T08:17:11.441Z,35.25
2022-08-29T08:19:41.243Z,35.26
2022-08-29T08:22:10.766Z,35.31
2022-08-29T08:24:40.472Z,35.43
2022-08-29T08:27:10.607Z,35.42
2022-08-29T08:29:39.806Z,35.44
2022-08-29T08:32:09.161Z,35.55
2022-08-29T08:34:38.336Z,35.58
2022-08-29T08:37:09.142Z,35.68
2022-08-29T08:39:39.248Z,35.76
2022-08-29T08:42:33.881Z,35.88
2022-08-29T08:45:15.337Z,35.83
2022-08-29T08:47:54.733Z,36.04
2022-08-29T08:50:40.986Z,35.97
2022-08-29T08:53:44.675Z,36.13
2022-08-29T08:56:48.012Z,36.21
2022-08-29T08:59:32.864Z,36.17
2022-08-29T09:02:22.425Z,36.22
2022-08-29T09:05:18.346Z,36.06
2022-08-29T09:08:21.332Z,35.74
2022-08-29T09:11:19.058Z,35.79
2022-08-29T09:14:04.434Z,35.89
2022-08-29T09:16:41.761Z,36.03
2022-08-29T09:19:17.212Z,35.84
2022-08-29T09:21:59.634Z,36.00
2022-08-29T09:24:47.949Z,36.07
2022-08-29T09:27:26.517Z,36.05
2022-08-29T09:30:04.513Z,36.07
2022-08-29T09:32:33.985Z,35.80
2022-08-29T09:35:20.926Z,36.06
2022-08-29T09:38:02.161Z,36.05
2022-08-29T09:41:00.077Z,36.06
2022-08-29T09:43:32.925Z,35.88
2022-08-29T09:46:11.017Z,36.01
2022-08-29T09:48:44.187Z,35.96
2022-08-29T09:51:29.860Z,35.98
2022-08-29T09:54:27.238Z,35.76
2022-08-29T09:57:03.429Z,35.63
2022-08-29T09:59:40.272Z,35.51
2022-08-29T10:02:24.762Z,35.38
2022-08-29T10:04:56.487Z,35.14
2022-08-29T10:07:27.312Z,35.10
2022-08-29T10:10:07.217Z,35.02
2022-08-29T10:13:08.823Z,34.96
2022-08-29T10:16:00.727Z,34.86
2022-08-29T10:18:45.332Z,34.80
2022-08-29T10:21:31.113Z,34.74
2022-08-29T10:24:25.420Z,34.63
2022-08-29T10:27:18.809Z,34.58
2022-08-29T10:30:08.860Z,34.47
2022-08-29T10:32:52.372Z,34.06
2022-08-29T10:35:32.188Z,33.72
2022-08-29T10:38:27.017Z,33.27
2022-08-29T10:41:09.938Z,32.39
2022-08-29T10:44:12.452Z,31.91
2022-08-29T10:47:15.929Z,31.33
2022-08-29T10:49:51.041Z,30.79
2022-08-29T10:52:32.197Z,30.75
2022-08-29T10:55:09.817Z,30.73
2022-08-29T10:58:12.307Z,30.67
2022-08-29T11:01:25.740Z,30.33
2022-08-29T11:04:07.087Z,30.29
2022-08-29T11:06:43.344Z,30.23
2022-08-29T11:09:24.836Z,30.31
2022-08-29T11:12:17.868Z,30.29
2022-08-29T11:14:53.312Z,30.10
2022-08-29T11:17:27.464Z,30.24
2022-08-29T11:20:12.939Z,30.12
2022-08-29T11:22:51.913Z,30.07
2022-08-29T11:25:24.764Z,30.10
2022-08-29T11:28:29.308Z,30.07
2022-08-29T11:31:17.613Z,30.31
2022-08-29T11:34:19.838Z,30.33
2022-08-29T11:36:52.392Z,30.25
2022-08-29T11:39:42.287Z,30.20
2022-08-29T11:42:14.464Z,30.19
2022-08-29T11:44:50.328Z,30.16
2022-08-29T11:47:40.520Z,30.05
2022-08-29T11:50:16.397Z,29.60
2022-08-29T11:53:10.887Z,29.93
2022-08-29T11:55:45.389Z,30.07
2022-08-29T11:58:17.358Z,30.24
2022-08-29T12:00:59.528Z,30.45
2022-08-29T12:03:35.305Z,30.55
2022-08-29T12:06:23.143Z,30.58
2022-08-29T12:09:13.415Z,30.38
2022-08-29T12:12:13.716Z,30.34
2022-08-29T12:14:45.270Z,30.30
2022-08-29T12:17:31.915Z,30.43
2022-08-29T12:20:09.511Z,30.42
2022-08-29T12:23:13.622Z,30.52
2022-08-29T12:26:21.526Z,30.57
2022-08-29T12:29:00.494Z,30.55
2022-08-29T12:32:02.328Z,30.58
2022-08-29T12:34:52.778Z,30.55
2022-08-29T12:37:31.939Z,30.50
2022-08-29T12:40:10.302Z,30.50
2022-08-29T12:43:17.527Z,30.68
2022-08-29T12:45:49.000Z,30.56
2022-08-29T12:48:39.201Z,30.55
2022-08-29T12:51:08.678Z,30.43
2022-08-29T12:53:39.763Z,30.37
2022-08-29T12:56:21.560Z,30.56
2022-08-29T12:58:53.967Z,30.45
2022-08-29T13:01:38.797Z,30.34
2022-08-29T13:04:19.006Z,30.30
2022-08-29T13:07:16.888Z,30.57
2022-08-29T13:09:55.837Z,30.34
2022-08-29T13:12:34.489Z,30.36
2022-08-29T13:15:06.141Z,30.26
2022-08-29T13:17:42.084Z,30.44
2022-08-29T13:20:42.775Z,30.27
2022-08-29T13:23:22.227Z,30.45
2022-08-29T13:26:12.995Z,30.51
2022-08-29T13:28:58.836Z,30.51
2022-08-29T13:31:34.759Z,30.34
2022-08-29T13:34:08.807Z,30.38
2022-08-29T13:36:46.877Z,30.31
2022-08-29T13:39:27.602Z,30.39
2022-08-29T13:42:02.457Z,30.21
2022-08-29T13:44:40.995Z,30.25
2022-08-29T13:47:29.154Z,30.34
2022-08-29T13:50:05.148Z,30.14
2022-08-29T13:52:34.481Z,30.04
2022-08-29T13:55:04.377Z,29.99
2022-08-29T13:57:36.054Z,29.95
2022-08-29T14:00:08.592Z,30.19
2022-08-29T14:02:45.023Z,30.09
2022-08-29T14:05:15.361Z,30.18
2022-08-29T14:07:45.802Z,30.18
2022-08-29T14:10:17.877Z,30.23
2022-08-29T14:12:47.938Z,30.02
2022-08-29T14:15:18.986Z,30.03
2022-08-29T14:17:49.972Z,30.12
2022-08-29T14:20:20.290Z,30.15
2022-08-29T14:22:50.108Z,30.15
2022-08-29T14:25:21.125Z,30.16
2022-08-29T14:27:51.295Z,30.05
2022-08-29T14:30:23.244Z,29.96
2022-08-29T14:32:53.693Z,29.98
2022-08-29T14:35:26.784Z,30.08
2022-08-29T14:38:02.600Z,29.82
2022-08-29T14:40:33.659Z,29.70
2022-08-29T14:43:04.695Z,29.84
2022-08-29T14:45:34.440Z,29.82
2022-08-29T14:48:04.597Z,30.02
2022-08-29T14:50:34.380Z,30.07
2022-08-29T14:53:03.521Z,30.07
2022-08-29T14:55:34.670Z,30.05
2022-08-29T14:58:05.092Z,29.92
2022-08-29T15:00:35.281Z,29.83
2022-08-29T15:03:04.859Z,29.76
2022-08-29T15:05:34.991Z,29.74
2022-08-29T15:08:06.771Z,29.76
2022-08-29T15:10:36.423Z,29.83
2022-08-29T15:13:06.497Z,29.91
2022-08-29T15:15:36.452Z,30.03
2022-08-29T15:18:12.207Z,30.09
2022-08-29T15:20:46.818Z,30.06
2022-08-29T15:23:16.913Z,29.87
2022-08-29T15:25:51.744Z,29.94
2022-08-29T15:28:22.396Z,29.92
2022-08-29T15:30:51.651Z,29.83
2022-08-29T15:33:21.454Z,29.87
2022-08-29T15:35:51.085Z,29.80
2022-08-29T15:38:20.353Z,29.90
2022-08-29T15:40:49.946Z,29.90
2022-08-29T15:43:19.010Z,29.97
2022-08-29T15:45:48.294Z,30.02
2022-08-29T15:48:19.205Z,30.06
2022-08-29T15:50:48.417Z,30.05
2022-08-29T15:53:17.892Z,30.12
2022-08-29T15:55:47.284Z,30.15
2022-08-29T15:58:17.104Z,30.18
2022-08-29T16:00:47.488Z,30.12
2022-08-29T16:03:17.467Z,30.00
2022-08-29T16:05:46.431Z,30.07
2022-08-29T16:08:17.703Z,30.02
2022-08-29T16:10:48.536Z,29.91
2022-08-29T16:13:18.494Z,29.90
2022-08-29T16:15:50.288Z,29.80
2022-08-29T16:18:19.552Z,29.79
2022-08-29T16:20:48.652Z,29.74
2022-08-29T16:23:22.670Z,29.93
2022-08-29T16:25:51.852Z,29.92
2022-08-29T16:28:21.032Z,29.98
2022-08-29T16:30:52.353Z,29.79
2022-08-29T16:33:22.715Z,29.74
2022-08-29T16:35:51.974Z,29.66
2022-08-29T16:38:21.298Z,29.68
2022-08-29T16:40:51.343Z,29.75
2022-08-29T16:43:20.629Z,29.80
2022-08-29T16:45:50.283Z,29.85
2022-08-29T16:48:19.766Z,29.92
2022-08-29T16:50:49.069Z,29.93
2022-08-29T16:53:18.449Z,29.91
2022-08-29T16:55:47.748Z,29.95
2022-08-29T16:58:36.309Z,29.97
2022-08-29T17:01:05.617Z,29.90
2022-08-29T17:03:35.533Z,29.82
2022-08-29T17:06:05.444Z,29.90
2022-08-29T17:08:34.489Z,29.84
2022-08-29T17:11:04.157Z,29.74
2022-08-29T17:13:33.819Z,29.72
2022-08-29T17:16:07.920Z,29.85
2022-08-29T17:18:37.600Z,29.80
2022-08-29T17:21:08.453Z,29.84
2022-08-29T17:23:38.755Z,29.96
2022-08-29T17:26:11.153Z,29.85
2022-08-29T17:28:41.339Z,29.91
2022-08-29T17:31:10.680Z,29.89
2022-08-29T17:33:40.411Z,29.72
2022-08-29T17:36:11.150Z,29.76
2022-08-29T17:38:47.448Z,29.99
2022-08-29T17:41:24.080Z,29.89
2022-08-29T17:43:53.925Z,29.92
2022-08-29T17:46:24.279Z,29.96
2022-08-29T17:48:53.424Z,29.81
2022-08-29T17:51:23.162Z,29.82
2022-08-29T17:53:53.847Z,29.92
2022-08-29T17:56:39.788Z,30.05
2022-08-29T17:59:15.099Z,29.84
2022-08-29T18:01:44.447Z,29.80
2022-08-29T18:04:14.826Z,29.92
2022-08-29T18:06:44.795Z,29.90
2022-08-29T18:09:14.439Z,29.82
2022-08-29T18:11:45.781Z,29.80
2022-08-29T18:14:15.827Z,29.87
2022-08-29T18:16:45.559Z,29.85
2022-08-29T18:19:15.417Z,29.72
2022-08-29T18:21:47.130Z,29.58
2022-08-29T18:24:16.861Z,29.56
2022-08-29T18:26:48.819Z,29.59
2022-08-29T18:29:23.941Z,29.66
2022-08-29T18:31:55.222Z,29.55
2022-08-29T18:34:26.993Z,29.46
2022-08-29T18:36:58.911Z,29.48
2022-08-29T18:39:28.054Z,29.65
2022-08-29T18:42:01.449Z,29.60
2022-08-29T18:44:30.905Z,29.69
2022-08-29T18:47:01.575Z,29.55
2022-08-29T18:49:49.855Z,29.57
2022-08-29T18:52:22.363Z,29.68
2022-08-29T18:54:52.335Z,29.72
2022-08-29T18:57:23.063Z,29.72
2022-08-29T18:59:55.370Z,29.74
2022-08-29T19:02:25.695Z,29.75
2022-08-29T19:05:03.140Z,29.77
2022-08-29T19:07:33.948Z,29.78
2022-08-29T19:10:03.237Z,29.73
2022-08-29T19:12:32.390Z,29.72
2022-08-29T19:15:05.138Z,29.72
2022-08-29T19:17:36.570Z,29.72
2022-08-29T19:20:35.752Z,29.79
2022-08-29T19:23:05.771Z,29.75
2022-08-29T19:25:35.931Z,29.75
2022-08-29T19:28:07.975Z,29.73
2022-08-29T19:30:39.809Z,29.74
2022-08-29T19:33:10.920Z,29.73
2022-08-29T19:35:40.759Z,29.68
2022-08-29T19:38:10.037Z,29.63
2022-08-29T19:40:40.731Z,29.72
2022-08-29T19:43:13.912Z,29.63
2022-08-29T19:45:44.455Z,29.68
2022-08-29T19:48:14.831Z,29.68
2022-08-29T19:50:47.502Z,29.65
2022-08-29T19:53:25.921Z,29.61
2022-08-29T19:55:57.673Z,29.64
2022-08-29T19:58:31.243Z,29.62
2022-08-29T20:01:10.700Z,29.66
2022-08-29T20:03:42.488Z,29.56
2022-08-29T20:06:12.609Z,29.62
2022-08-29T20:08:45.113Z,29.64
2022-08-29T20:11:18.268Z,29.68
2022-08-29T20:13:51.045Z,29.68
2022-08-29T20:16:24.048Z,29.75
2022-08-29T20:18:54.103Z,29.70
2022-08-29T20:21:25.082Z,29.73
2022-08-29T20:23:58.045Z,29.68
2022-08-29T20:26:34.073Z,29.73
2022-08-29T20:29:12.078Z,29.53
2022-08-29T20:31:42.026Z,29.42
2022-08-29T20:34:11.894Z,29.56
2022-08-29T20:37:00.037Z,29.60
2022-08-29T20:39:29.209Z,29.62
2022-08-29T20:42:00.323Z,29.57
2022-08-29T20:44:33.938Z,29.45
2022-08-29T20:47:03.845Z,29.41
2022-08-29T20:49:36.525Z,29.50
2022-08-29T20:52:07.104Z,29.48
2022-08-29T20:54:36.990Z,29.45
2022-08-29T20:57:08.235Z,29.52
2022-08-29T20:59:42.076Z,29.55
2022-08-29T21:02:12.077Z,29.58
2022-08-29T21:05:00.004Z,29.56
2022-08-29T21:07:29.149Z,29.46
2022-08-29T21:09:58.956Z,29.44
2022-08-29T21:12:31.515Z,29.50
2022-08-29T21:15:00.678Z,29.51
2022-08-29T21:17:30.015Z,29.49
2022-08-29T21:19:59.274Z,29.53
2022-08-29T21:22:28.865Z,29.54
2022-08-29T21:24:58.039Z,29.51
2022-08-29T21:27:27.450Z,29.47
2022-08-29T21:29:58.056Z,29.54
2022-08-29T21:32:28.272Z,29.46
2022-08-29T21:34:57.641Z,29.52
2022-08-29T21:37:27.166Z,29.51
2022-08-29T21:39:56.542Z,29.51
2022-08-29T21:42:26.290Z,29.50
2022-08-29T21:44:57.664Z,29.53
2022-08-29T21:47:27.536Z,29.44
2022-08-29T21:49:57.936Z,29.45
2022-08-29T21:52:27.347Z,29.50
2022-08-29T21:54:56.602Z,29.41
2022-08-29T21:57:44.075Z,29.44
2022-08-29T22:00:14.918Z,29.37
2022-08-29T22:02:44.433Z,29.42
2022-08-29T22:05:15.250Z,29.43
2022-08-29T22:07:45.714Z,29.39
2022-08-29T22:10:18.664Z,29.37
2022-08-29T22:12:49.118Z,29.29
2022-08-29T22:15:37.649Z,29.40
2022-08-29T22:18:08.421Z,29.43
2022-08-29T22:20:38.730Z,29.45
2022-08-29T22:23:08.376Z,29.47
2022-08-29T22:25:37.918Z,29.41
2022-08-29T22:28:07.734Z,29.47
2022-08-29T22:30:37.495Z,29.46
2022-08-29T22:33:07.198Z,29.46
2022-08-29T22:35:37.659Z,29.48
2022-08-29T22:38:07.220Z,29.47
2022-08-29T22:40:36.503Z,29.39
2022-08-29T22:43:06.098Z,29.28
2022-08-29T22:45:35.146Z,29.38
2022-08-29T22:48:04.781Z,29.38
2022-08-29T22:50:34.490Z,29.37
2022-08-29T22:53:03.717Z,29.32
2022-08-29T22:55:33.198Z,29.26
2022-08-29T22:58:02.576Z,29.33
2022-08-29T23:00:32.610Z,29.29
2022-08-29T23:03:04.333Z,29.30
2022-08-29T23:05:34.014Z,29.37
2022-08-29T23:08:03.676Z,29.34
2022-08-29T23:10:33.545Z,29.39
2022-08-29T23:13:02.604Z,29.38
2022-08-29T23:15:31.778Z,29.43
2022-08-29T23:18:02.084Z,29.45
2022-08-29T23:20:31.512Z,29.46
2022-08-29T23:23:01.226Z,29.44
2022-08-29T23:25:31.515Z,29.44
2022-08-29T23:28:02.064Z,29.33
2022-08-29T23:30:31.338Z,29.46
2022-08-29T23:33:01.211Z,29.46
2022-08-29T23:35:30.349Z,29.49
2022-08-29T23:37:59.899Z,29.46
2022-08-29T23:40:29.418Z,29.46
2022-08-29T23:42:59.241Z,29.33
2022-08-29T23:45:28.656Z,29.42
2022-08-29T23:47:58.422Z,29.41
2022-08-29T23:50:27.496Z,29.43
2022-08-29T23:52:56.706Z,29.35
2022-08-29T23:55:26.667Z,29.38
2022-08-29T23:57:55.583Z,29.31
